sensor_id;sensor_type;location;lat;lon;timestamp;P1;durP1;ratioP1;P2;durP2;ratioP2
22144;SDS011;11238;48.730;11.566;2023-02-17T00:02:07;33.08;;;21.65;;
22144;SDS011;11238;48.730;11.566;2023-02-17T00:04:34;31.73;;;20.85;;
22144;SDS011;11238;48.730;11.566;2023-02-17T00:07:00;31.85;;;21.92;;
22144;SDS011;11238;48.730;11.566;2023-02-17T00:09:26;31.33;;;20.83;;
22144;SDS011;11238;48.730;11.566;2023-02-17T00:11:51;31.60;;;21.38;;
22144;SDS011;11238;48.730;11.566;2023-02-17T00:14:17;33.70;;;20.98;;
22144;SDS011;11238;48.730;11.566;2023-02-17T00:16:43;31.55;;;20.60;;
22144;SDS011;11238;48.730;11.566;2023-02-17T00:19:10;31.80;;;20.77;;
22144;SDS011;11238;48.730;11.566;2023-02-17T00:21:50;32.90;;;20.42;;
22144;SDS011;11238;48.730;11.566;2023-02-17T00:24:42;31.53;;;20.23;;
22144;SDS011;11238;48.730;11.566;2023-02-17T00:27:08;30.75;;;19.58;;
22144;SDS011;11238;48.730;11.566;2023-02-17T00:29:35;30.55;;;19.80;;
22144;SDS011;11238;48.730;11.566;2023-02-17T00:32:00;30.23;;;19.95;;
22144;SDS011;11238;48.730;11.566;2023-02-17T00:34:26;30.67;;;20.38;;
22144;SDS011;11238;48.730;11.566;2023-02-17T00:36:52;31.67;;;20.55;;
22144;SDS011;11238;48.730;11.566;2023-02-17T00:39:18;32.10;;;20.50;;
22144;SDS011;11238;48.730;11.566;2023-02-17T00:41:47;29.40;;;20.15;;
22144;SDS011;11238;48.730;11.566;2023-02-17T00:44:15;29.45;;;19.83;;
22144;SDS011;11238;48.730;11.566;2023-02-17T00:46:42;32.00;;;21.02;;
22144;SDS011;11238;48.730;11.566;2023-02-17T00:49:13;30.63;;;20.10;;
22144;SDS011;11238;48.730;11.566;2023-02-17T00:51:44;26.88;;;18.50;;
22144;SDS011;11238;48.730;11.566;2023-02-17T00:54:11;29.95;;;19.52;;
22144;SDS011;11238;48.730;11.566;2023-02-17T00:56:37;31.45;;;20.05;;
22144;SDS011;11238;48.730;11.566;2023-02-17T00:59:03;31.17;;;19.25;;
22144;SDS011;11238;48.730;11.566;2023-02-17T01:01:30;29.30;;;19.25;;
22144;SDS011;11238;48.730;11.566;2023-02-17T01:03:57;32.00;;;20.45;;
22144;SDS011;11238;48.730;11.566;2023-02-17T01:06:24;30.52;;;20.13;;
22144;SDS011;11238;48.730;11.566;2023-02-17T01:08:52;30.58;;;19.92;;
22144;SDS011;11238;48.730;11.566;2023-02-17T01:11:19;32.33;;;20.70;;
22144;SDS011;11238;48.730;11.566;2023-02-17T01:13:47;33.25;;;21.38;;
22144;SDS011;11238;48.730;11.566;2023-02-17T01:16:32;34.17;;;20.95;;
22144;SDS011;11238;48.730;11.566;2023-02-17T01:19:01;31.13;;;21.15;;
22144;SDS011;11238;48.730;11.566;2023-02-17T01:21:29;31.27;;;21.38;;
22144;SDS011;11238;48.730;11.566;2023-02-17T01:23:56;29.92;;;19.92;;
22144;SDS011;11238;48.730;11.566;2023-02-17T01:26:24;30.38;;;19.48;;
22144;SDS011;11238;48.730;11.566;2023-02-17T01:28:52;28.80;;;19.05;;
22144;SDS011;11238;48.730;11.566;2023-02-17T01:31:18;32.65;;;19.00;;
22144;SDS011;11238;48.730;11.566;2023-02-17T01:33:45;29.17;;;19.95;;
22144;SDS011;11238;48.730;11.566;2023-02-17T01:36:12;31.00;;;19.20;;
22144;SDS011;11238;48.730;11.566;2023-02-17T01:38:40;31.55;;;20.02;;
22144;SDS011;11238;48.730;11.566;2023-02-17T01:41:08;30.15;;;19.88;;
22144;SDS011;11238;48.730;11.566;2023-02-17T01:43:34;31.50;;;20.55;;
22144;SDS011;11238;48.730;11.566;2023-02-17T01:46:01;29.92;;;19.45;;
22144;SDS011;11238;48.730;11.566;2023-02-17T01:48:45;30.20;;;19.80;;
22144;SDS011;11238;48.730;11.566;2023-02-17T01:53:52;32.50;;;21.05;;
22144;SDS011;11238;48.730;11.566;2023-02-17T01:56:31;33.95;;;21.30;;
22144;SDS011;11238;48.730;11.566;2023-02-17T01:59:07;31.30;;;21.15;;
22144;SDS011;11238;48.730;11.566;2023-02-17T02:01:37;33.92;;;21.15;;
22144;SDS011;11238;48.730;11.566;2023-02-17T02:04:04;36.17;;;21.92;;
22144;SDS011;11238;48.730;11.566;2023-02-17T02:06:32;36.88;;;21.50;;
22144;SDS011;11238;48.730;11.566;2023-02-17T02:09:05;32.17;;;21.42;;
22144;SDS011;11238;48.730;11.566;2023-02-17T02:11:34;31.83;;;20.58;;
22144;SDS011;11238;48.730;11.566;2023-02-17T02:14:01;32.13;;;20.73;;
22144;SDS011;11238;48.730;11.566;2023-02-17T02:16:47;34.08;;;21.02;;
22144;SDS011;11238;48.730;11.566;2023-02-17T02:22:37;33.10;;;21.98;;
22144;SDS011;11238;48.730;11.566;2023-02-17T02:28:20;34.08;;;21.52;;
22144;SDS011;11238;48.730;11.566;2023-02-17T02:34:36;33.40;;;21.33;;
22144;SDS011;11238;48.730;11.566;2023-02-17T02:37:08;31.67;;;19.90;;
22144;SDS011;11238;48.730;11.566;2023-02-17T02:39:39;31.50;;;20.33;;
22144;SDS011;11238;48.730;11.566;2023-02-17T02:42:10;31.85;;;20.67;;
22144;SDS011;11238;48.730;11.566;2023-02-17T02:44:41;29.98;;;20.17;;
22144;SDS011;11238;48.730;11.566;2023-02-17T02:47:52;36.10;;;22.17;;
22144;SDS011;11238;48.730;11.566;2023-02-17T02:50:37;30.63;;;20.05;;
22144;SDS011;11238;48.730;11.566;2023-02-17T03:04:32;32.35;;;20.58;;
22144;SDS011;11238;48.730;11.566;2023-02-17T03:09:49;29.67;;;19.67;;
22144;SDS011;11238;48.730;11.566;2023-02-17T03:12:18;28.95;;;20.10;;
22144;SDS011;11238;48.730;11.566;2023-02-17T03:14:45;30.95;;;19.58;;
22144;SDS011;11238;48.730;11.566;2023-02-17T03:17:15;31.98;;;19.92;;
22144;SDS011;11238;48.730;11.566;2023-02-17T03:19:41;29.50;;;19.27;;
22144;SDS011;11238;48.730;11.566;2023-02-17T03:22:15;29.95;;;19.90;;
22144;SDS011;11238;48.730;11.566;2023-02-17T03:24:48;29.77;;;19.65;;
22144;SDS011;11238;48.730;11.566;2023-02-17T03:27:14;32.47;;;20.30;;
22144;SDS011;11238;48.730;11.566;2023-02-17T03:29:40;27.52;;;19.23;;
22144;SDS011;11238;48.730;11.566;2023-02-17T03:32:06;28.52;;;19.15;;
22144;SDS011;11238;48.730;11.566;2023-02-17T03:34:32;32.28;;;20.08;;
22144;SDS011;11238;48.730;11.566;2023-02-17T03:36:58;29.80;;;19.73;;
22144;SDS011;11238;48.730;11.566;2023-02-17T03:39:23;29.02;;;20.15;;
22144;SDS011;11238;48.730;11.566;2023-02-17T03:41:49;28.88;;;20.05;;
22144;SDS011;11238;48.730;11.566;2023-02-17T03:44:16;30.80;;;20.10;;
22144;SDS011;11238;48.730;11.566;2023-02-17T03:46:42;32.58;;;19.88;;
22144;SDS011;11238;48.730;11.566;2023-02-17T03:49:09;30.75;;;19.45;;
22144;SDS011;11238;48.730;11.566;2023-02-17T03:51:35;28.27;;;19.88;;
22144;SDS011;11238;48.730;11.566;2023-02-17T03:54:01;31.15;;;20.90;;
22144;SDS011;11238;48.730;11.566;2023-02-17T03:56:26;28.70;;;19.77;;
22144;SDS011;11238;48.730;11.566;2023-02-17T03:58:52;27.92;;;19.58;;
22144;SDS011;11238;48.730;11.566;2023-02-17T04:01:18;30.48;;;19.50;;
22144;SDS011;11238;48.730;11.566;2023-02-17T04:03:44;28.85;;;19.40;;
22144;SDS011;11238;48.730;11.566;2023-02-17T04:06:11;29.73;;;20.50;;
22144;SDS011;11238;48.730;11.566;2023-02-17T04:08:37;31.67;;;20.67;;
22144;SDS011;11238;48.730;11.566;2023-02-17T04:11:03;29.98;;;20.00;;
22144;SDS011;11238;48.730;11.566;2023-02-17T04:13:30;33.03;;;20.58;;
22144;SDS011;11238;48.730;11.566;2023-02-17T04:15:56;29.80;;;19.88;;
22144;SDS011;11238;48.730;11.566;2023-02-17T04:18:22;40.03;;;20.95;;
22144;SDS011;11238;48.730;11.566;2023-02-17T04:20:48;31.13;;;20.15;;
22144;SDS011;11238;48.730;11.566;2023-02-17T04:23:15;28.52;;;19.98;;
22144;SDS011;11238;48.730;11.566;2023-02-17T04:25:42;32.53;;;20.25;;
22144;SDS011;11238;48.730;11.566;2023-02-17T04:28:09;28.98;;;20.73;;
22144;SDS011;11238;48.730;11.566;2023-02-17T04:30:35;27.85;;;19.85;;
22144;SDS011;11238;48.730;11.566;2023-02-17T04:33:01;32.80;;;20.25;;
22144;SDS011;11238;48.730;11.566;2023-02-17T04:35:27;29.90;;;19.60;;
22144;SDS011;11238;48.730;11.566;2023-02-17T04:37:53;29.58;;;19.70;;
22144;SDS011;11238;48.730;11.566;2023-02-17T04:40:20;27.83;;;19.40;;
22144;SDS011;11238;48.730;11.566;2023-02-17T04:42:46;28.85;;;20.13;;
22144;SDS011;11238;48.730;11.566;2023-02-17T04:45:12;28.58;;;19.95;;
22144;SDS011;11238;48.730;11.566;2023-02-17T04:47:38;29.50;;;19.98;;
22144;SDS011;11238;48.730;11.566;2023-02-17T04:50:05;29.90;;;19.23;;
22144;SDS011;11238;48.730;11.566;2023-02-17T04:52:32;29.70;;;19.40;;
22144;SDS011;11238;48.730;11.566;2023-02-17T04:54:58;30.88;;;20.55;;
22144;SDS011;11238;48.730;11.566;2023-02-17T04:57:24;30.13;;;20.13;;
22144;SDS011;11238;48.730;11.566;2023-02-17T04:59:50;32.85;;;20.88;;
22144;SDS011;11238;48.730;11.566;2023-02-17T05:02:15;32.97;;;20.67;;
22144;SDS011;11238;48.730;11.566;2023-02-17T05:04:41;37.35;;;21.90;;
22144;SDS011;11238;48.730;11.566;2023-02-17T05:07:07;32.80;;;21.27;;
22144;SDS011;11238;48.730;11.566;2023-02-17T05:09:33;35.72;;;20.95;;
22144;SDS011;11238;48.730;11.566;2023-02-17T05:11:59;30.38;;;20.55;;
22144;SDS011;11238;48.730;11.566;2023-02-17T05:14:27;29.05;;;20.35;;
22144;SDS011;11238;48.730;11.566;2023-02-17T05:16:53;31.42;;;20.20;;
22144;SDS011;11238;48.730;11.566;2023-02-17T05:19:41;29.35;;;19.25;;
22144;SDS011;11238;48.730;11.566;2023-02-17T05:22:06;29.23;;;19.65;;
22144;SDS011;11238;48.730;11.566;2023-02-17T05:24:33;28.23;;;19.65;;
22144;SDS011;11238;48.730;11.566;2023-02-17T05:27:21;30.63;;;19.83;;
22144;SDS011;11238;48.730;11.566;2023-02-17T05:30:08;29.83;;;19.70;;
22144;SDS011;11238;48.730;11.566;2023-02-17T05:32:35;29.23;;;19.05;;
22144;SDS011;11238;48.730;11.566;2023-02-17T05:35:01;28.10;;;18.05;;
22144;SDS011;11238;48.730;11.566;2023-02-17T05:37:27;31.83;;;20.00;;
22144;SDS011;11238;48.730;11.566;2023-02-17T05:39:53;28.42;;;19.65;;
22144;SDS011;11238;48.730;11.566;2023-02-17T05:42:19;30.63;;;19.60;;
22144;SDS011;11238;48.730;11.566;2023-02-17T05:44:45;28.95;;;18.38;;
22144;SDS011;11238;48.730;11.566;2023-02-17T05:47:11;27.75;;;18.92;;
22144;SDS011;11238;48.730;11.566;2023-02-17T05:49:36;29.05;;;19.70;;
22144;SDS011;11238;48.730;11.566;2023-02-17T05:52:02;29.83;;;19.73;;
22144;SDS011;11238;48.730;11.566;2023-02-17T05:54:29;30.63;;;19.33;;
22144;SDS011;11238;48.730;11.566;2023-02-17T05:56:55;28.75;;;18.95;;
22144;SDS011;11238;48.730;11.566;2023-02-17T05:59:20;29.05;;;19.83;;
22144;SDS011;11238;48.730;11.566;2023-02-17T06:01:49;27.98;;;19.67;;
22144;SDS011;11238;48.730;11.566;2023-02-17T06:04:15;31.75;;;20.40;;
22144;SDS011;11238;48.730;11.566;2023-02-17T06:06:41;29.25;;;18.55;;
22144;SDS011;11238;48.730;11.566;2023-02-17T06:09:07;32.95;;;19.92;;
22144;SDS011;11238;48.730;11.566;2023-02-17T06:11:33;30.08;;;20.05;;
22144;SDS011;11238;48.730;11.566;2023-02-17T06:13:59;33.03;;;20.63;;
22144;SDS011;11238;48.730;11.566;2023-02-17T06:16:25;28.40;;;19.23;;
22144;SDS011;11238;48.730;11.566;2023-02-17T06:18:51;32.00;;;19.67;;
22144;SDS011;11238;48.730;11.566;2023-02-17T06:21:17;32.17;;;20.48;;
22144;SDS011;11238;48.730;11.566;2023-02-17T06:23:43;29.42;;;19.90;;
22144;SDS011;11238;48.730;11.566;2023-02-17T06:26:08;30.20;;;19.45;;
22144;SDS011;11238;48.730;11.566;2023-02-17T06:28:34;31.00;;;20.05;;
22144;SDS011;11238;48.730;11.566;2023-02-17T06:31:00;29.27;;;18.40;;
22144;SDS011;11238;48.730;11.566;2023-02-17T06:33:26;25.45;;;16.90;;
22144;SDS011;11238;48.730;11.566;2023-02-17T06:36:11;21.95;;;14.18;;
22144;SDS011;11238;48.730;11.566;2023-02-17T06:38:37;20.88;;;10.85;;
22144;SDS011;11238;48.730;11.566;2023-02-17T06:41:02;19.30;;;10.45;;
22144;SDS011;11238;48.730;11.566;2023-02-17T06:43:29;17.92;;;9.23;;
22144;SDS011;11238;48.730;11.566;2023-02-17T06:45:54;15.85;;;8.55;;
22144;SDS011;11238;48.730;11.566;2023-02-17T06:48:20;14.13;;;7.88;;
22144;SDS011;11238;48.730;11.566;2023-02-17T06:50:47;13.13;;;8.02;;
22144;SDS011;11238;48.730;11.566;2023-02-17T06:53:14;15.15;;;7.50;;
22144;SDS011;11238;48.730;11.566;2023-02-17T06:55:40;16.25;;;7.68;;
22144;SDS011;11238;48.730;11.566;2023-02-17T06:58:08;16.60;;;7.13;;
22144;SDS011;11238;48.730;11.566;2023-02-17T07:00:34;9.27;;;5.95;;
22144;SDS011;11238;48.730;11.566;2023-02-17T07:03:00;13.07;;;6.43;;
22144;SDS011;11238;48.730;11.566;2023-02-17T07:05:27;10.48;;;5.70;;
22144;SDS011;11238;48.730;11.566;2023-02-17T07:07:52;11.77;;;6.55;;
22144;SDS011;11238;48.730;11.566;2023-02-17T07:10:21;8.82;;;5.43;;
22144;SDS011;11238;48.730;11.566;2023-02-17T07:12:48;13.93;;;5.85;;
22144;SDS011;11238;48.730;11.566;2023-02-17T07:15:13;9.85;;;5.97;;
22144;SDS011;11238;48.730;11.566;2023-02-17T07:17:39;10.85;;;6.13;;
22144;SDS011;11238;48.730;11.566;2023-02-17T07:20:05;11.30;;;6.55;;
22144;SDS011;11238;48.730;11.566;2023-02-17T07:25:09;9.77;;;5.90;;
22144;SDS011;11238;48.730;11.566;2023-02-17T07:27:35;13.88;;;6.53;;
22144;SDS011;11238;48.730;11.566;2023-02-17T07:30:01;8.23;;;5.80;;
22144;SDS011;11238;48.730;11.566;2023-02-17T07:32:30;11.77;;;5.07;;
22144;SDS011;11238;48.730;11.566;2023-02-17T07:35:18;10.75;;;5.85;;
22144;SDS011;11238;48.730;11.566;2023-02-17T07:37:44;11.00;;;5.80;;
22144;SDS011;11238;48.730;11.566;2023-02-17T07:40:10;11.85;;;6.30;;
22144;SDS011;11238;48.730;11.566;2023-02-17T07:42:37;11.82;;;5.78;;
22144;SDS011;11238;48.730;11.566;2023-02-17T07:45:03;10.80;;;5.95;;
22144;SDS011;11238;48.730;11.566;2023-02-17T07:47:30;10.23;;;6.25;;
22144;SDS011;11238;48.730;11.566;2023-02-17T07:49:59;10.70;;;6.35;;
22144;SDS011;11238;48.730;11.566;2023-02-17T07:52:25;14.88;;;5.85;;
22144;SDS011;11238;48.730;11.566;2023-02-17T07:54:51;10.75;;;6.18;;
22144;SDS011;11238;48.730;11.566;2023-02-17T07:57:17;12.43;;;6.22;;
22144;SDS011;11238;48.730;11.566;2023-02-17T07:59:44;9.90;;;6.32;;
22144;SDS011;11238;48.730;11.566;2023-02-17T08:02:12;12.45;;;6.10;;
22144;SDS011;11238;48.730;11.566;2023-02-17T08:04:38;10.65;;;6.18;;
22144;SDS011;11238;48.730;11.566;2023-02-17T08:07:06;10.55;;;5.70;;
22144;SDS011;11238;48.730;11.566;2023-02-17T08:09:33;11.05;;;6.20;;
22144;SDS011;11238;48.730;11.566;2023-02-17T08:12:20;10.55;;;5.88;;
22144;SDS011;11238;48.730;11.566;2023-02-17T08:15:07;14.77;;;6.55;;
22144;SDS011;11238;48.730;11.566;2023-02-17T08:17:33;8.93;;;5.82;;
22144;SDS011;11238;48.730;11.566;2023-02-17T08:19:59;12.88;;;6.13;;
22144;SDS011;11238;48.730;11.566;2023-02-17T08:22:25;10.25;;;5.60;;
22144;SDS011;11238;48.730;11.566;2023-02-17T08:24:52;9.75;;;5.78;;
22144;SDS011;11238;48.730;11.566;2023-02-17T08:27:18;11.93;;;6.00;;
22144;SDS011;11238;48.730;11.566;2023-02-17T08:30:06;7.78;;;5.55;;
22144;SDS011;11238;48.730;11.566;2023-02-17T08:32:43;8.55;;;5.40;;
22144;SDS011;11238;48.730;11.566;2023-02-17T08:35:16;10.80;;;5.47;;
22144;SDS011;11238;48.730;11.566;2023-02-17T08:37:50;10.05;;;5.45;;
22144;SDS011;11238;48.730;11.566;2023-02-17T08:40:16;9.65;;;5.28;;
22144;SDS011;11238;48.730;11.566;2023-02-17T08:42:42;11.50;;;5.55;;
22144;SDS011;11238;48.730;11.566;2023-02-17T08:45:27;9.48;;;5.00;;
22144;SDS011;11238;48.730;11.566;2023-02-17T08:47:53;12.48;;;5.22;;
22144;SDS011;11238;48.730;11.566;2023-02-17T08:50:19;8.63;;;4.90;;
22144;SDS011;11238;48.730;11.566;2023-02-17T08:52:45;10.77;;;4.80;;
22144;SDS011;11238;48.730;11.566;2023-02-17T08:55:12;8.18;;;4.93;;
22144;SDS011;11238;48.730;11.566;2023-02-17T08:57:38;9.93;;;4.80;;
22144;SDS011;11238;48.730;11.566;2023-02-17T09:00:21;9.43;;;5.18;;
22144;SDS011;11238;48.730;11.566;2023-02-17T09:02:47;9.52;;;5.10;;
22144;SDS011;11238;48.730;11.566;2023-02-17T09:05:24;9.27;;;4.20;;
22144;SDS011;11238;48.730;11.566;2023-02-17T09:07:49;12.60;;;4.60;;
22144;SDS011;11238;48.730;11.566;2023-02-17T09:10:15;9.43;;;4.03;;
22144;SDS011;11238;48.730;11.566;2023-02-17T09:12:41;12.43;;;4.43;;
22144;SDS011;11238;48.730;11.566;2023-02-17T09:15:07;7.60;;;4.28;;
22144;SDS011;11238;48.730;11.566;2023-02-17T09:17:39;9.13;;;4.32;;
22144;SDS011;11238;48.730;11.566;2023-02-17T09:20:05;9.70;;;4.10;;
22144;SDS011;11238;48.730;11.566;2023-02-17T09:22:33;10.43;;;4.57;;
22144;SDS011;11238;48.730;11.566;2023-02-17T09:24:58;17.35;;;4.82;;
22144;SDS011;11238;48.730;11.566;2023-02-17T09:27:46;7.97;;;4.35;;
22144;SDS011;11238;48.730;11.566;2023-02-17T09:30:12;8.73;;;4.03;;
22144;SDS011;11238;48.730;11.566;2023-02-17T09:32:41;12.85;;;4.10;;
22144;SDS011;11238;48.730;11.566;2023-02-17T09:35:12;7.00;;;4.30;;
22144;SDS011;11238;48.730;11.566;2023-02-17T09:37:39;8.43;;;4.10;;
22144;SDS011;11238;48.730;11.566;2023-02-17T09:40:06;9.30;;;4.43;;
22144;SDS011;11238;48.730;11.566;2023-02-17T09:42:39;8.40;;;4.13;;
22144;SDS011;11238;48.730;11.566;2023-02-17T09:45:27;7.85;;;4.03;;
22144;SDS011;11238;48.730;11.566;2023-02-17T09:47:54;11.63;;;4.10;;
22144;SDS011;11238;48.730;11.566;2023-02-17T09:53:01;10.95;;;4.05;;
22144;SDS011;11238;48.730;11.566;2023-02-17T09:55:56;8.98;;;3.95;;
22144;SDS011;11238;48.730;11.566;2023-02-17T09:58:48;5.03;;;3.15;;
22144;SDS011;11238;48.730;11.566;2023-02-17T10:01:21;10.85;;;3.97;;
22144;SDS011;11238;48.730;11.566;2023-02-17T10:03:54;6.30;;;4.10;;
22144;SDS011;11238;48.730;11.566;2023-02-17T10:06:40;7.10;;;3.63;;
22144;SDS011;11238;48.730;11.566;2023-02-17T10:09:21;9.20;;;4.03;;
22144;SDS011;11238;48.730;11.566;2023-02-17T10:12:08;8.30;;;3.75;;
22144;SDS011;11238;48.730;11.566;2023-02-17T10:14:43;9.70;;;3.83;;
22144;SDS011;11238;48.730;11.566;2023-02-17T10:17:32;6.70;;;3.33;;
22144;SDS011;11238;48.730;11.566;2023-02-17T10:20:03;8.25;;;3.88;;
22144;SDS011;11238;48.730;11.566;2023-02-17T10:22:29;7.18;;;3.53;;
22144;SDS011;11238;48.730;11.566;2023-02-17T10:24:57;9.70;;;3.13;;
22144;SDS011;11238;48.730;11.566;2023-02-17T10:30:44;6.28;;;2.92;;
22144;SDS011;11238;48.730;11.566;2023-02-17T10:36:54;8.10;;;2.80;;
22144;SDS011;11238;48.730;11.566;2023-02-17T10:42:15;8.68;;;2.95;;
22144;SDS011;11238;48.730;11.566;2023-02-17T10:48:07;4.93;;;2.72;;
22144;SDS011;11238;48.730;11.566;2023-02-17T10:50:39;6.55;;;2.78;;
22144;SDS011;11238;48.730;11.566;2023-02-17T10:53:17;7.68;;;2.72;;
22144;SDS011;11238;48.730;11.566;2023-02-17T10:58:34;4.28;;;2.10;;
22144;SDS011;11238;48.730;11.566;2023-02-17T11:01:15;3.03;;;2.23;;
22144;SDS011;11238;48.730;11.566;2023-02-17T11:03:41;4.82;;;2.28;;
22144;SDS011;11238;48.730;11.566;2023-02-17T11:06:21;4.43;;;2.00;;
22144;SDS011;11238;48.730;11.566;2023-02-17T11:12:38;4.70;;;2.30;;
22144;SDS011;11238;48.730;11.566;2023-02-17T11:15:13;5.47;;;2.70;;
22144;SDS011;11238;48.730;11.566;2023-02-17T11:17:43;5.28;;;2.08;;
22144;SDS011;11238;48.730;11.566;2023-02-17T11:22:39;4.30;;;1.90;;
22144;SDS011;11238;48.730;11.566;2023-02-17T11:25:22;6.03;;;2.30;;
22144;SDS011;11238;48.730;11.566;2023-02-17T11:27:55;4.93;;;2.35;;
22144;SDS011;11238;48.730;11.566;2023-02-17T11:30:48;5.60;;;2.08;;
22144;SDS011;11238;48.730;11.566;2023-02-17T11:33:19;2.42;;;1.98;;
22144;SDS011;11238;48.730;11.566;2023-02-17T11:35:48;7.45;;;2.40;;
22144;SDS011;11238;48.730;11.566;2023-02-17T11:38:19;4.50;;;2.28;;
22144;SDS011;11238;48.730;11.566;2023-02-17T11:41:02;4.38;;;2.17;;
22144;SDS011;11238;48.730;11.566;2023-02-17T11:43:31;4.57;;;2.03;;
22144;SDS011;11238;48.730;11.566;2023-02-17T11:46:00;4.75;;;2.28;;
22144;SDS011;11238;48.730;11.566;2023-02-17T11:51:16;4.80;;;2.00;;
22144;SDS011;11238;48.730;11.566;2023-02-17T11:54:05;4.20;;;2.08;;
22144;SDS011;11238;48.730;11.566;2023-02-17T12:03:15;4.13;;;2.20;;
22144;SDS011;11238;48.730;11.566;2023-02-17T12:05:52;4.18;;;2.22;;
22144;SDS011;11238;48.730;11.566;2023-02-17T12:17:16;8.32;;;2.65;;
22144;SDS011;11238;48.730;11.566;2023-02-17T12:22:16;5.53;;;1.95;;
22144;SDS011;11238;48.730;11.566;2023-02-17T12:24:57;5.25;;;2.15;;
22144;SDS011;11238;48.730;11.566;2023-02-17T12:27:47;4.05;;;1.92;;
22144;SDS011;11238;48.730;11.566;2023-02-17T12:33:38;3.67;;;1.90;;
22144;SDS011;11238;48.730;11.566;2023-02-17T12:36:22;3.80;;;2.30;;
22144;SDS011;11238;48.730;11.566;2023-02-17T12:38:54;4.45;;;2.33;;
22144;SDS011;11238;48.730;11.566;2023-02-17T12:41:25;6.65;;;1.80;;
22144;SDS011;11238;48.730;11.566;2023-02-17T12:44:11;2.55;;;1.80;;
22144;SDS011;11238;48.730;11.566;2023-02-17T12:46:42;4.28;;;2.00;;
22144;SDS011;11238;48.730;11.566;2023-02-17T12:49:15;3.40;;;2.20;;
22144;SDS011;11238;48.730;11.566;2023-02-17T12:51:50;4.25;;;1.98;;
22144;SDS011;11238;48.730;11.566;2023-02-17T12:54:38;5.07;;;1.85;;
22144;SDS011;11238;48.730;11.566;2023-02-17T12:57:21;4.57;;;2.05;;
22144;SDS011;11238;48.730;11.566;2023-02-17T13:00:24;5.25;;;1.83;;
22144;SDS011;11238;48.730;11.566;2023-02-17T13:03:16;4.05;;;2.30;;
22144;SDS011;11238;48.730;11.566;2023-02-17T13:05:45;7.88;;;2.33;;
22144;SDS011;11238;48.730;11.566;2023-02-17T13:08:42;2.67;;;2.20;;
22144;SDS011;11238;48.730;11.566;2023-02-17T13:11:26;3.28;;;2.15;;
22144;SDS011;11238;48.730;11.566;2023-02-17T13:13:55;4.28;;;1.90;;
22144;SDS011;11238;48.730;11.566;2023-02-17T13:16:21;5.65;;;2.17;;
22144;SDS011;11238;48.730;11.566;2023-02-17T13:18:49;7.60;;;2.58;;
22144;SDS011;11238;48.730;11.566;2023-02-17T13:21:24;6.80;;;2.40;;
22144;SDS011;11238;48.730;11.566;2023-02-17T13:26:55;10.68;;;2.35;;
22144;SDS011;11238;48.730;11.566;2023-02-17T13:29:40;7.47;;;2.70;;
22144;SDS011;11238;48.730;11.566;2023-02-17T13:32:09;5.05;;;2.78;;
22144;SDS011;11238;48.730;11.566;2023-02-17T13:37:15;7.93;;;2.80;;
22144;SDS011;11238;48.730;11.566;2023-02-17T13:42:47;3.35;;;2.45;;
22144;SDS011;11238;48.730;11.566;2023-02-17T13:45:28;3.65;;;2.95;;
22144;SDS011;11238;48.730;11.566;2023-02-17T13:56:01;5.43;;;3.40;;
22144;SDS011;11238;48.730;11.566;2023-02-17T13:58:39;6.88;;;3.30;;
22144;SDS011;11238;48.730;11.566;2023-02-17T14:01:19;6.90;;;3.55;;
22144;SDS011;11238;48.730;11.566;2023-02-17T14:03:50;9.98;;;3.72;;
22144;SDS011;11238;48.730;11.566;2023-02-17T14:06:23;9.63;;;3.42;;
22144;SDS011;11238;48.730;11.566;2023-02-17T14:08:57;7.70;;;3.30;;
22144;SDS011;11238;48.730;11.566;2023-02-17T14:11:24;6.70;;;3.10;;
22144;SDS011;11238;48.730;11.566;2023-02-17T14:13:53;5.38;;;3.00;;
22144;SDS011;11238;48.730;11.566;2023-02-17T14:16:42;6.32;;;3.22;;
22144;SDS011;11238;48.730;11.566;2023-02-17T14:19:12;7.00;;;3.20;;
22144;SDS011;11238;48.730;11.566;2023-02-17T14:21:43;5.97;;;3.08;;
22144;SDS011;11238;48.730;11.566;2023-02-17T14:24:28;4.85;;;2.90;;
22144;SDS011;11238;48.730;11.566;2023-02-17T14:27:01;7.82;;;3.10;;
22144;SDS011;11238;48.730;11.566;2023-02-17T14:29:45;6.95;;;3.25;;
22144;SDS011;11238;48.730;11.566;2023-02-17T14:32:32;5.45;;;2.72;;
22144;SDS011;11238;48.730;11.566;2023-02-17T14:35:20;6.40;;;3.00;;
22144;SDS011;11238;48.730;11.566;2023-02-17T14:37:47;5.63;;;2.55;;
22144;SDS011;11238;48.730;11.566;2023-02-17T14:40:16;4.70;;;2.70;;
22144;SDS011;11238;48.730;11.566;2023-02-17T14:45:35;5.00;;;3.05;;
22144;SDS011;11238;48.730;11.566;2023-02-17T14:48:01;6.78;;;3.00;;
22144;SDS011;11238;48.730;11.566;2023-02-17T14:50:26;4.78;;;3.10;;
22144;SDS011;11238;48.730;11.566;2023-02-17T14:52:52;7.28;;;3.00;;
22144;SDS011;11238;48.730;11.566;2023-02-17T14:55:28;6.57;;;2.88;;
22144;SDS011;11238;48.730;11.566;2023-02-17T14:57:58;4.75;;;2.80;;
22144;SDS011;11238;48.730;11.566;2023-02-17T15:00:25;5.32;;;2.65;;
22144;SDS011;11238;48.730;11.566;2023-02-17T15:02:51;5.88;;;2.63;;
22144;SDS011;11238;48.730;11.566;2023-02-17T15:05:17;3.75;;;2.58;;
22144;SDS011;11238;48.730;11.566;2023-02-17T15:07:43;7.05;;;2.50;;
22144;SDS011;11238;48.730;11.566;2023-02-17T15:10:25;4.50;;;2.33;;
22144;SDS011;11238;48.730;11.566;2023-02-17T15:12:53;6.43;;;2.70;;
22144;SDS011;11238;48.730;11.566;2023-02-17T15:15:20;5.35;;;2.72;;
22144;SDS011;11238;48.730;11.566;2023-02-17T15:17:46;2.38;;;2.08;;
22144;SDS011;11238;48.730;11.566;2023-02-17T15:20:12;6.25;;;3.00;;
22144;SDS011;11238;48.730;11.566;2023-02-17T15:22:39;5.22;;;3.08;;
22144;SDS011;11238;48.730;11.566;2023-02-17T15:25:16;6.40;;;2.55;;
22144;SDS011;11238;48.730;11.566;2023-02-17T15:27:44;6.82;;;2.78;;
22144;SDS011;11238;48.730;11.566;2023-02-17T15:30:15;4.20;;;2.75;;
22144;SDS011;11238;48.730;11.566;2023-02-17T15:33:05;4.18;;;2.60;;
22144;SDS011;11238;48.730;11.566;2023-02-17T15:35:38;3.03;;;2.40;;
22144;SDS011;11238;48.730;11.566;2023-02-17T15:38:04;4.13;;;2.72;;
22144;SDS011;11238;48.730;11.566;2023-02-17T15:40:30;4.63;;;2.53;;
22144;SDS011;11238;48.730;11.566;2023-02-17T15:43:20;4.85;;;2.28;;
22144;SDS011;11238;48.730;11.566;2023-02-17T15:45:47;3.47;;;2.55;;
22144;SDS011;11238;48.730;11.566;2023-02-17T15:50:47;5.38;;;2.40;;
22144;SDS011;11238;48.730;11.566;2023-02-17T15:53:13;3.63;;;2.10;;
22144;SDS011;11238;48.730;11.566;2023-02-17T15:55:38;3.35;;;2.05;;
22144;SDS011;11238;48.730;11.566;2023-02-17T15:58:04;5.15;;;2.40;;
22144;SDS011;11238;48.730;11.566;2023-02-17T16:00:34;3.50;;;2.40;;
22144;SDS011;11238;48.730;11.566;2023-02-17T16:03:00;4.72;;;2.17;;
22144;SDS011;11238;48.730;11.566;2023-02-17T16:05:27;5.75;;;2.40;;
22144;SDS011;11238;48.730;11.566;2023-02-17T16:07:55;4.68;;;2.17;;
22144;SDS011;11238;48.730;11.566;2023-02-17T16:10:22;3.22;;;2.28;;
22144;SDS011;11238;48.730;11.566;2023-02-17T16:12:54;4.25;;;2.10;;
22144;SDS011;11238;48.730;11.566;2023-02-17T16:15:22;3.17;;;1.92;;
22144;SDS011;11238;48.730;11.566;2023-02-17T16:17:49;2.53;;;1.80;;
22144;SDS011;11238;48.730;11.566;2023-02-17T16:20:16;4.57;;;2.28;;
22144;SDS011;11238;48.730;11.566;2023-02-17T16:22:43;2.97;;;2.22;;